Terminal Aerodrome Forecast
Issued by NWS

Home | Current Version | Previous Version | Text Only | Print | Product List | Glossary On
Versions: 1 2 3 4 5 6 7 8 9 10 11 12 13 14 15 16 17 18 19 20 21 22 23 24 25 26
000
FTAK31 PANC 041724
TAFAVD
TAF
PAVD 041724Z 0418/0518 VRB03KT P6SM SCT035 BKN080
     FM042200 25005KT P6SM -RA SCT035 BKN045
     FM050100 26004KT P6SM -RA OVC035
     FM050900 VRB02KT P6SM BKN025
      AMD LTD TO CLD VIS AND WIND=

USA.gov is the U.S. government's official web portal to all federal, state and local government web resources and services.